Time;durP1;ratioP1;P1;durP2;ratioP2;P2;SDS_P1;SDS_P2;PMS_P1;PMS_P2;Temp;Humidity;BMP_temperature;BMP_pressure;BME280_temperature;BME280_humidity;BME280_pressure;Samples;Min_cycle;Max_cycle;Signal;HPM_P1;HPM_P2
2021/12/27 00:00:37;;;;;;;25.73;14.33;;;;;;;;;;5063078;28;20186;-76
2021/12/27 00:03:03;;;;;;;21.13;14.30;;;;;;;;;;5075616;28;20200;-76
2021/12/27 00:05:30;;;;;;;21.17;14.17;;;;;;;;;;5084280;28;20616;-76
2021/12/27 00:07:56;;;;;;;23.10;13.70;;;;;;;;;;5067378;28;20667;-76
2021/12/27 00:10:24;;;;;;;22.33;14.43;;;;;;;;;;5073277;28;20199;-76
2021/12/27 00:12:50;;;;;;;18.43;12.40;;;;;;;;;;5087052;28;20544;-76
2021/12/27 00:15:17;;;;;;;21.73;13.67;;;;;;;;;;5094105;28;20172;-76
2021/12/27 00:17:43;;;;;;;19.30;12.53;;;;;;;;;;5075759;28;20619;-76
2021/12/27 00:20:11;;;;;;;20.20;12.87;;;;;;;;;;5075703;28;20195;-76
2021/12/27 00:22:38;;;;;;;22.37;14.00;;;;;;;;;;5076886;28;20215;-76
2021/12/27 00:25:05;;;;;;;21.30;13.60;;;;;;;;;;5059472;28;20219;-76
2021/12/27 00:27:32;;;;;;;21.37;12.80;;;;;;;;;;5076225;28;20187;-76
2021/12/27 00:29:58;;;;;;;17.90;11.80;;;;;;;;;;5076462;28;20262;-76
2021/12/27 00:32:24;;;;;;;20.37;13.37;;;;;;;;;;5072001;28;20247;-76
2021/12/27 00:34:50;;;;;;;22.00;14.13;;;;;;;;;;5092616;28;20207;-76
2021/12/27 00:37:16;;;;;;;23.07;14.67;;;;;;;;;;5076486;28;20196;-77
2021/12/27 00:39:42;;;;;;;25.33;14.87;;;;;;;;;;5075819;28;20184;-76
2021/12/27 00:42:08;;;;;;;21.20;13.20;;;;;;;;;;5058526;28;20222;-76
2021/12/27 00:44:35;;;;;;;23.13;13.30;;;;;;;;;;5092191;28;20227;-76
2021/12/27 00:47:01;;;;;;;22.10;12.97;;;;;;;;;;5075659;28;20695;-76
2021/12/27 00:49:27;;;;;;;18.93;11.90;;;;;;;;;;5074906;28;20181;-76
2021/12/27 00:51:54;;;;;;;22.77;13.70;;;;;;;;;;5092263;28;20180;-76
2021/12/27 00:54:20;;;;;;;24.77;14.17;;;;;;;;;;5076375;28;20223;-76
2021/12/27 00:56:46;;;;;;;22.67;13.97;;;;;;;;;;5092429;28;20204;-76
2021/12/27 00:59:12;;;;;;;17.77;11.67;;;;;;;;;;5076756;28;20719;-76
2021/12/27 01:01:39;;;;;;;18.00;11.47;;;;;;;;;;5074269;28;20265;-76
2021/12/27 01:04:06;;;;;;;17.43;11.80;;;;;;;;;;5061844;28;20678;-76
2021/12/27 01:06:32;;;;;;;19.23;12.37;;;;;;;;;;5067880;28;20243;-76
2021/12/27 01:08:59;;;;;;;16.70;11.20;;;;;;;;;;5095994;28;20575;-76
2021/12/27 01:11:35;;;;;;;18.00;11.57;;;;;;;;;;5092377;28;20523;-76
2021/12/27 01:14:12;;;;;;;17.23;11.27;;;;;;;;;;5077432;28;20186;-76
2021/12/27 01:16:39;;;;;;;19.20;12.47;;;;;;;;;;5087928;28;20359;-76
2021/12/27 01:19:06;;;;;;;17.17;12.37;;;;;;;;;;5079225;28;20579;-76
2021/12/27 01:21:32;;;;;;;17.17;11.87;;;;;;;;;;5079324;28;20296;-76
2021/12/27 01:23:59;;;;;;;18.70;12.33;;;;;;;;;;5096155;28;20204;-76
2021/12/27 01:26:26;;;;;;;20.00;12.57;;;;;;;;;;5086182;28;20195;-76
2021/12/27 01:28:52;;;;;;;17.87;12.03;;;;;;;;;;5096427;28;20184;-76
2021/12/27 01:31:19;;;;;;;20.13;12.63;;;;;;;;;;5096162;28;20185;-76
2021/12/27 01:33:46;;;;;;;20.00;13.10;;;;;;;;;;5059742;28;20675;-76
2021/12/27 01:36:13;;;;;;;17.10;11.13;;;;;;;;;;5087639;28;20291;-76
2021/12/27 01:38:40;;;;;;;17.03;11.07;;;;;;;;;;5096009;28;20181;-76
2021/12/27 01:41:07;;;;;;;20.27;12.40;;;;;;;;;;5095110;28;20177;-76
2021/12/27 01:43:35;;;;;;;20.43;12.27;;;;;;;;;;5095325;28;20226;-76
2021/12/27 01:46:04;;;;;;;18.77;11.93;;;;;;;;;;5064270;28;20750;-76
2021/12/27 01:48:36;;;;;;;22.00;13.43;;;;;;;;;;5074142;28;20181;-76
2021/12/27 01:51:02;;;;;;;19.30;12.83;;;;;;;;;;5074251;28;20177;-76
2021/12/27 01:53:30;;;;;;;18.87;12.20;;;;;;;;;;5059907;28;20189;-76
2021/12/27 01:55:57;;;;;;;20.10;12.23;;;;;;;;;;5088331;28;20283;-77
2021/12/27 01:58:23;;;;;;;19.90;12.90;;;;;;;;;;5080209;28;20278;-76
2021/12/27 02:00:51;;;;;;;17.13;11.57;;;;;;;;;;5095405;28;20249;-76
2021/12/27 02:03:18;;;;;;;24.23;13.80;;;;;;;;;;5087031;28;20180;-77
2021/12/27 02:05:44;;;;;;;21.47;14.00;;;;;;;;;;5078437;28;20293;-76
2021/12/27 02:08:12;;;;;;;24.23;14.40;;;;;;;;;;5079849;28;20187;-77
2021/12/27 02:10:38;;;;;;;22.80;14.27;;;;;;;;;;5046534;28;20187;-76
2021/12/27 02:13:04;;;;;;;22.97;13.97;;;;;;;;;;5095782;28;20582;-77
2021/12/27 02:15:31;;;;;;;18.43;12.20;;;;;;;;;;5095306;28;20574;-77
2021/12/27 02:17:57;;;;;;;20.47;13.17;;;;;;;;;;5059173;28;20245;-77
2021/12/27 02:20:26;;;;;;;23.73;14.07;;;;;;;;;;5078525;28;20709;-77
2021/12/27 02:22:55;;;;;;;19.90;12.73;;;;;;;;;;5093401;28;20212;-77
2021/12/27 02:25:22;;;;;;;18.97;11.97;;;;;;;;;;5095140;28;20710;-76
2021/12/27 02:27:48;;;;;;;17.33;11.27;;;;;;;;;;5070027;28;20191;-77
2021/12/27 02:30:19;;;;;;;21.47;13.23;;;;;;;;;;5061250;28;20180;-77
2021/12/27 02:32:46;;;;;;;21.47;13.10;;;;;;;;;;5088189;28;20550;-77
2021/12/27 02:35:17;;;;;;;18.90;11.70;;;;;;;;;;5060896;28;20188;-77
2021/12/27 02:37:43;;;;;;;18.87;12.63;;;;;;;;;;5060702;28;20241;-77
2021/12/27 02:40:10;;;;;;;17.30;11.27;;;;;;;;;;5074781;28;20291;-77
2021/12/27 02:42:51;;;;;;;19.00;12.60;;;;;;;;;;5087661;28;20211;-77
2021/12/27 02:45:17;;;;;;;19.03;12.00;;;;;;;;;;5090222;28;20273;-77
2021/12/27 02:47:44;;;;;;;18.93;12.47;;;;;;;;;;5095127;28;20184;-77
2021/12/27 02:50:10;;;;;;;14.33;11.13;;;;;;;;;;5091033;28;20230;-77
2021/12/27 02:52:36;;;;;;;17.63;11.93;;;;;;;;;;5089828;28;20180;-77
2021/12/27 02:55:03;;;;;;;21.90;13.77;;;;;;;;;;5060598;28;20180;-77
2021/12/27 02:57:29;;;;;;;19.13;12.30;;;;;;;;;;5077340;28;20188;-77
2021/12/27 02:59:57;;;;;;;18.93;11.73;;;;;;;;;;5093763;28;20227;-77
2021/12/27 03:02:23;;;;;;;17.93;12.30;;;;;;;;;;5077008;28;20172;-77
2021/12/27 03:04:50;;;;;;;17.67;11.60;;;;;;;;;;5094239;28;20219;-77
2021/12/27 03:07:16;;;;;;;16.07;11.20;;;;;;;;;;5056546;28;20209;-77
2021/12/27 03:09:42;;;;;;;14.53;10.20;;;;;;;;;;5091028;28;20180;-77
2021/12/27 03:12:12;;;;;;;14.67;10.10;;;;;;;;;;5060259;28;20474;-77
2021/12/27 03:14:38;;;;;;;17.83;12.37;;;;;;;;;;5092864;28;20613;-77
2021/12/27 03:17:04;;;;;;;20.80;13.43;;;;;;;;;;5075151;28;20671;-77
2021/12/27 03:19:30;;;;;;;21.77;13.57;;;;;;;;;;5090935;28;20644;-77
2021/12/27 03:21:57;;;;;;;21.03;13.63;;;;;;;;;;5090305;28;20177;-77
2021/12/27 03:24:25;;;;;;;22.37;13.73;;;;;;;;;;5084662;28;20245;-77
2021/12/27 03:26:51;;;;;;;19.50;12.97;;;;;;;;;;5072609;28;20244;-77
2021/12/27 03:29:17;;;;;;;19.93;12.97;;;;;;;;;;5073803;28;20173;-77
2021/12/27 03:31:43;;;;;;;23.03;14.80;;;;;;;;;;5094646;28;20603;-77
2021/12/27 03:34:10;;;;;;;23.93;15.07;;;;;;;;;;5095450;28;20279;-77
2021/12/27 03:36:40;;;;;;;24.37;14.60;;;;;;;;;;5093067;28;20215;-77
2021/12/27 03:39:08;;;;;;;20.93;13.47;;;;;;;;;;5092758;28;20727;-77
2021/12/27 03:41:35;;;;;;;17.70;12.27;;;;;;;;;;5076585;28;20185;-77
2021/12/27 03:44:01;;;;;;;18.50;12.50;;;;;;;;;;5093065;28;20261;-77
2021/12/27 03:46:28;;;;;;;17.80;11.83;;;;;;;;;;5076272;28;20203;-77
2021/12/27 03:48:54;;;;;;;22.13;13.47;;;;;;;;;;5059853;28;20231;-77
2021/12/27 03:51:20;;;;;;;21.13;14.20;;;;;;;;;;5076393;28;20674;-77
2021/12/27 03:53:46;;;;;;;18.23;12.43;;;;;;;;;;5074947;28;20177;-77
2021/12/27 03:56:12;;;;;;;16.97;11.20;;;;;;;;;;5068082;28;20204;-77
2021/12/27 03:59:18;;;;;;;18.13;12.23;;;;;;;;;;5072749;28;20189;-77
2021/12/27 04:01:44;;;;;;;16.03;11.20;;;;;;;;;;5072987;28;20627;-77
2021/12/27 04:04:10;;;;;;;16.30;11.77;;;;;;;;;;5063328;28;20216;-77
2021/12/27 04:06:36;;;;;;;20.30;11.93;;;;;;;;;;5093076;28;20287;-77
2021/12/27 04:09:02;;;;;;;18.27;12.63;;;;;;;;;;5071673;28;20184;-77
2021/12/27 04:11:28;;;;;;;19.30;12.70;;;;;;;;;;5072197;28;20185;-77
2021/12/27 04:13:56;;;;;;;18.63;12.63;;;;;;;;;;5066703;28;20181;-77
2021/12/27 04:16:22;;;;;;;19.57;12.57;;;;;;;;;;5090787;28;20204;-78
2021/12/27 04:18:48;;;;;;;19.97;13.10;;;;;;;;;;5087455;28;20176;-77
2021/12/27 04:21:15;;;;;;;19.80;13.27;;;;;;;;;;5091711;28;20184;-77
2021/12/27 04:23:41;;;;;;;21.10;14.27;;;;;;;;;;5075147;28;20207;-77
2021/12/27 04:26:07;;;;;;;19.33;12.87;;;;;;;;;;5075026;28;20563;-77
2021/12/27 04:28:33;;;;;;;20.60;13.73;;;;;;;;;;5090601;28;20204;-78
2021/12/27 04:31:00;;;;;;;20.73;13.00;;;;;;;;;;5089004;28;20188;-77
2021/12/27 04:33:26;;;;;;;18.93;13.10;;;;;;;;;;5054290;28;20735;-77
2021/12/27 04:35:52;;;;;;;23.27;14.47;;;;;;;;;;5038427;28;20209;-77
2021/12/27 04:38:18;;;;;;;22.17;14.80;;;;;;;;;;5074968;28;20192;-77
2021/12/27 04:40:46;;;;;;;22.40;14.87;;;;;;;;;;5073087;28;20483;-78
2021/12/27 04:43:14;;;;;;;22.90;15.07;;;;;;;;;;5085293;28;20227;-78
2021/12/27 04:45:41;;;;;;;25.23;15.20;;;;;;;;;;5048852;28;20246;-78
2021/12/27 04:48:08;;;;;;;21.27;14.00;;;;;;;;;;5078509;28;20589;-78
2021/12/27 04:50:34;;;;;;;22.03;13.97;;;;;;;;;;5073938;28;20211;-78
2021/12/27 04:53:01;;;;;;;24.63;14.90;;;;;;;;;;5095354;28;20184;-77
2021/12/27 04:55:27;;;;;;;21.67;13.93;;;;;;;;;;5078513;28;20207;-77
2021/12/27 04:57:54;;;;;;;24.57;15.57;;;;;;;;;;5084895;28;20189;-78
2021/12/27 05:00:20;;;;;;;23.13;15.30;;;;;;;;;;5082389;28;20222;-78
2021/12/27 05:02:46;;;;;;;26.70;16.23;;;;;;;;;;5091136;28;20268;-78
2021/12/27 05:05:13;;;;;;;23.73;14.47;;;;;;;;;;5090437;28;20334;-78
2021/12/27 05:07:39;;;;;;;19.47;13.00;;;;;;;;;;5095290;28;20184;-78
2021/12/27 05:10:06;;;;;;;27.73;17.23;;;;;;;;;;5061433;28;20649;-78
2021/12/27 05:12:32;;;;;;;29.30;18.47;;;;;;;;;;5094147;28;20187;-77
2021/12/27 05:14:58;;;;;;;23.10;15.17;;;;;;;;;;5077973;28;20208;-78
2021/12/27 05:17:25;;;;;;;24.23;15.20;;;;;;;;;;5077881;28;20196;-78
2021/12/27 05:19:51;;;;;;;24.53;15.03;;;;;;;;;;5094154;28;20187;-78
2021/12/27 05:22:17;;;;;;;22.17;14.73;;;;;;;;;;5058732;28;20221;-77
2021/12/27 05:24:43;;;;;;;21.37;13.73;;;;;;;;;;5079046;28;20774;-77
2021/12/27 05:27:09;;;;;;;24.77;15.33;;;;;;;;;;5093968;28;20208;-78
2021/12/27 05:29:36;;;;;;;24.90;15.50;;;;;;;;;;5077429;28;20176;-77
2021/12/27 05:32:03;;;;;;;23.07;15.40;;;;;;;;;;5060660;28;20241;-77
2021/12/27 05:34:29;;;;;;;27.20;16.17;;;;;;;;;;5086995;28;20279;-77
2021/12/27 05:36:55;;;;;;;28.77;17.17;;;;;;;;;;5077325;28;20208;-78
2021/12/27 05:39:22;;;;;;;26.57;17.67;;;;;;;;;;5078711;28;20204;-78
2021/12/27 05:41:49;;;;;;;26.03;17.20;;;;;;;;;;5060410;28;20279;-77
2021/12/27 05:44:17;;;;;;;28.57;17.37;;;;;;;;;;5074796;28;20240;-78
2021/12/27 05:46:43;;;;;;;30.30;17.63;;;;;;;;;;5075096;28;20197;-77
2021/12/27 05:49:10;;;;;;;25.90;15.93;;;;;;;;;;5078511;28;20178;-78
2021/12/27 05:51:36;;;;;;;25.80;15.97;;;;;;;;;;5061144;28;20188;-78
2021/12/27 05:54:05;;;;;;;23.73;15.53;;;;;;;;;;5062580;28;20215;-78
2021/12/27 05:56:31;;;;;;;22.77;15.47;;;;;;;;;;5093430;28;20622;-78
2021/12/27 05:58:58;;;;;;;24.47;15.23;;;;;;;;;;5095761;28;20180;-78
2021/12/27 06:01:29;;;;;;;24.90;16.00;;;;;;;;;;5096962;28;20218;-78
2021/12/27 06:03:57;;;;;;;21.87;15.03;;;;;;;;;;5065374;28;20232;-77
2021/12/27 06:06:24;;;;;;;22.43;14.90;;;;;;;;;;5065676;28;20797;-78
2021/12/27 06:08:50;;;;;;;23.37;15.37;;;;;;;;;;5069136;28;20189;-78
2021/12/27 06:11:16;;;;;;;25.30;15.10;;;;;;;;;;5075150;28;20230;-78
2021/12/27 06:13:43;;;;;;;22.90;14.73;;;;;;;;;;5064523;28;20188;-78
2021/12/27 06:16:11;;;;;;;25.00;15.53;;;;;;;;;;5094865;28;20548;-77
2021/12/27 06:18:39;;;;;;;22.67;15.27;;;;;;;;;;5096036;28;20225;-77
2021/12/27 06:21:05;;;;;;;22.37;13.87;;;;;;;;;;5095083;28;20220;-78
2021/12/27 06:23:32;;;;;;;24.33;15.10;;;;;;;;;;5094198;28;20196;-78
2021/12/27 06:25:59;;;;;;;20.77;14.37;;;;;;;;;;5078666;28;20196;-77
2021/12/27 06:28:27;;;;;;;25.97;15.03;;;;;;;;;;5094127;28;20238;-79
2021/12/27 06:30:53;;;;;;;21.47;14.20;;;;;;;;;;5074551;28;20687;-78
2021/12/27 06:33:20;;;;;;;16.93;13.00;;;;;;;;;;5092266;28;20187;-77
2021/12/27 06:35:46;;;;;;;21.00;14.20;;;;;;;;;;5092674;28;20198;-77
2021/12/27 06:38:12;;;;;;;19.73;13.67;;;;;;;;;;5092021;28;20632;-76
2021/12/27 06:40:38;;;;;;;21.07;14.03;;;;;;;;;;5084949;28;20176;-76
2021/12/27 06:43:04;;;;;;;21.10;13.57;;;;;;;;;;5089591;28;20221;-75
2021/12/27 06:45:31;;;;;;;17.47;12.50;;;;;;;;;;5090121;28;20259;-75
2021/12/27 06:47:57;;;;;;;16.37;12.20;;;;;;;;;;5092268;28;20176;-75
2021/12/27 06:50:23;;;;;;;17.90;13.03;;;;;;;;;;5091486;28;20807;-79
2021/12/27 06:52:50;;;;;;;15.57;11.47;;;;;;;;;;5071208;28;20189;-78
2021/12/27 06:55:16;;;;;;;14.83;11.03;;;;;;;;;;5085476;28;20692;-76
2021/12/27 06:57:42;;;;;;;17.07;12.37;;;;;;;;;;5081164;28;20276;-77
2021/12/27 07:00:11;;;;;;;16.00;11.67;;;;;;;;;;5088336;28;20208;-78
2021/12/27 07:02:37;;;;;;;16.73;11.73;;;;;;;;;;5091811;28;20180;-77
2021/12/27 07:05:03;;;;;;;14.17;10.50;;;;;;;;;;5089110;28;20207;-78
2021/12/27 07:07:29;;;;;;;13.20;10.13;;;;;;;;;;5092594;28;20172;-79
2021/12/27 07:09:56;;;;;;;13.37;10.77;;;;;;;;;;5075142;28;20189;-77
2021/12/27 07:12:22;;;;;;;12.13;9.63;;;;;;;;;;5092025;28;20196;-81
2021/12/27 07:14:48;;;;;;;12.30;9.27;;;;;;;;;;5093204;28;20701;-76
2021/12/27 07:17:15;;;;;;;11.83;9.60;;;;;;;;;;5085715;28;20692;-78
2021/12/27 07:19:42;;;;;;;13.17;10.10;;;;;;;;;;5091462;28;20196;-78
2021/12/27 07:22:08;;;;;;;11.07;9.13;;;;;;;;;;5089264;28;20234;-78
2021/12/27 07:24:34;;;;;;;11.93;9.63;;;;;;;;;;5090783;28;20236;-78
2021/12/27 07:27:00;;;;;;;11.83;8.63;;;;;;;;;;5089990;28;20211;-78
2021/12/27 07:29:26;;;;;;;11.43;9.23;;;;;;;;;;5091378;28;20251;-77
2021/12/27 07:31:53;;;;;;;11.50;9.20;;;;;;;;;;5091771;28;20199;-78
2021/12/27 07:34:21;;;;;;;11.47;9.10;;;;;;;;;;5070422;28;20196;-78
2021/12/27 07:36:48;;;;;;;11.93;9.03;;;;;;;;;;5080101;28;20203;-78
2021/12/27 07:39:15;;;;;;;10.57;9.07;;;;;;;;;;5088350;28;20199;-78
2021/12/27 07:41:41;;;;;;;15.37;10.10;;;;;;;;;;5068462;28;20184;-78
2021/12/27 07:44:08;;;;;;;13.40;9.40;;;;;;;;;;5069174;28;20205;-78
2021/12/27 07:46:35;;;;;;;14.80;10.17;;;;;;;;;;5069554;28;20189;-78
2021/12/27 07:49:02;;;;;;;14.70;10.07;;;;;;;;;;5090592;28;20183;-78
2021/12/27 07:51:28;;;;;;;11.17;8.90;;;;;;;;;;5091619;28;20173;-78
2021/12/27 07:53:55;;;;;;;12.80;10.03;;;;;;;;;;5090663;28;20705;-77
2021/12/27 07:56:21;;;;;;;12.27;10.10;;;;;;;;;;5090612;28;20207;-77
2021/12/27 07:58:47;;;;;;;12.30;9.47;;;;;;;;;;5090453;28;20184;-77
2021/12/27 08:01:13;;;;;;;12.30;9.80;;;;;;;;;;5077292;28;20810;-77
2021/12/27 08:03:39;;;;;;;14.23;10.17;;;;;;;;;;5082230;28;20771;-78
2021/12/27 08:06:05;;;;;;;13.47;10.30;;;;;;;;;;5091228;28;20204;-78
2021/12/27 08:08:32;;;;;;;10.63;8.73;;;;;;;;;;5091349;28;20173;-77
2021/12/27 08:10:58;;;;;;;11.40;9.23;;;;;;;;;;5091090;28;20199;-77
2021/12/27 08:13:24;;;;;;;15.57;10.90;;;;;;;;;;5090223;28;20210;-78
2021/12/27 08:15:50;;;;;;;14.70;10.23;;;;;;;;;;5090901;28;20200;-78
2021/12/27 08:18:17;;;;;;;14.43;10.43;;;;;;;;;;5089945;28;20181;-78
2021/12/27 08:20:43;;;;;;;15.47;10.40;;;;;;;;;;5091440;28;20173;-78
2021/12/27 08:23:09;;;;;;;15.87;10.33;;;;;;;;;;5090259;28;20815;-78
2021/12/27 08:25:35;;;;;;;15.77;10.40;;;;;;;;;;5088214;28;20304;-78
2021/12/27 08:28:02;;;;;;;16.67;10.83;;;;;;;;;;5088476;28;20181;-77
2021/12/27 08:30:28;;;;;;;14.63;10.77;;;;;;;;;;5090321;28;20230;-78
2021/12/27 08:32:56;;;;;;;17.03;11.47;;;;;;;;;;5091589;28;20219;-77
2021/12/27 08:35:23;;;;;;;15.50;10.57;;;;;;;;;;5072863;28;20227;-78
2021/12/27 08:37:49;;;;;;;13.97;10.07;;;;;;;;;;5091320;28;20682;-79
2021/12/27 08:40:15;;;;;;;16.20;12.00;;;;;;;;;;5089736;28;20187;-78
2021/12/27 08:42:41;;;;;;;13.17;10.47;;;;;;;;;;5090297;28;20181;-78
2021/12/27 08:45:08;;;;;;;14.77;10.90;;;;;;;;;;5090853;28;20184;-78
2021/12/27 08:47:34;;;;;;;16.63;10.53;;;;;;;;;;5090964;28;20181;-77
2021/12/27 08:50:00;;;;;;;13.43;11.00;;;;;;;;;;5090977;28;20597;-78
2021/12/27 08:52:28;;;;;;;17.97;13.67;;;;;;;;;;5081117;28;20612;-78
2021/12/27 08:54:54;;;;;;;22.50;16.20;;;;;;;;;;5090717;28;20267;-78
2021/12/27 08:57:20;;;;;;;22.30;16.17;;;;;;;;;;5090587;28;20252;-78
2021/12/27 08:59:46;;;;;;;20.53;15.57;;;;;;;;;;5091011;28;20279;-78
2021/12/27 09:02:12;;;;;;;24.10;17.13;;;;;;;;;;5090782;28;20212;-78
2021/12/27 09:04:39;;;;;;;21.17;14.97;;;;;;;;;;5089221;28;20208;-78
2021/12/27 09:07:05;;;;;;;23.30;15.77;;;;;;;;;;5090844;28;20279;-75
2021/12/27 09:09:31;;;;;;;17.40;13.23;;;;;;;;;;5090461;28;20242;-75
2021/12/27 09:11:57;;;;;;;19.60;13.97;;;;;;;;;;5086242;28;20181;-78
2021/12/27 09:14:23;;;;;;;21.47;14.87;;;;;;;;;;5074424;28;20189;-78
2021/12/27 09:16:50;;;;;;;15.57;12.20;;;;;;;;;;5089861;28;20205;-78
2021/12/27 09:19:16;;;;;;;21.33;13.57;;;;;;;;;;5085669;28;20170;-78
2021/12/27 09:21:42;;;;;;;18.53;14.77;;;;;;;;;;5072099;28;20186;-78
2021/12/27 09:24:09;;;;;;;16.93;12.87;;;;;;;;;;5082498;28;20203;-78
2021/12/27 09:26:35;;;;;;;18.27;13.67;;;;;;;;;;5095211;28;20196;-78
2021/12/27 09:29:02;;;;;;;16.67;12.93;;;;;;;;;;5090975;28;20723;-77
2021/12/27 09:31:28;;;;;;;16.43;12.50;;;;;;;;;;5094404;28;20540;-77
2021/12/27 09:33:54;;;;;;;14.17;11.90;;;;;;;;;;5092615;28;20681;-78
2021/12/27 09:36:21;;;;;;;15.10;11.87;;;;;;;;;;5094170;28;20224;-78
2021/12/27 09:38:48;;;;;;;14.63;12.10;;;;;;;;;;5092559;28;20259;-78
2021/12/27 09:41:14;;;;;;;17.17;14.07;;;;;;;;;;5087551;28;20247;-78
2021/12/27 09:43:41;;;;;;;15.73;12.73;;;;;;;;;;5093991;28;20240;-78
2021/12/27 09:46:07;;;;;;;18.77;12.97;;;;;;;;;;5092567;28;20189;-77
2021/12/27 09:48:34;;;;;;;18.17;12.63;;;;;;;;;;5093987;28;20176;-78
2021/12/27 09:51:00;;;;;;;13.83;10.67;;;;;;;;;;5093737;28;20272;-78
2021/12/27 09:53:27;;;;;;;16.67;13.27;;;;;;;;;;5094287;28;20160;-77
2021/12/27 09:55:53;;;;;;;15.00;12.10;;;;;;;;;;5090983;28;20212;-78
2021/12/27 09:58:20;;;;;;;13.80;11.37;;;;;;;;;;5093032;28;20656;-78
2021/12/27 10:00:49;;;;;;;15.20;12.07;;;;;;;;;;5094043;28;20183;-78
2021/12/27 10:03:16;;;;;;;11.67;10.03;;;;;;;;;;5092417;28;20175;-78
2021/12/27 10:05:44;;;;;;;12.93;10.13;;;;;;;;;;5091966;28;20226;-79
2021/12/27 10:08:12;;;;;;;10.90;8.93;;;;;;;;;;5083217;28;20702;-78
2021/12/27 10:10:38;;;;;;;12.00;9.33;;;;;;;;;;5093359;28;20200;-78
2021/12/27 10:13:08;;;;;;;15.23;10.40;;;;;;;;;;5084030;28;20165;-78
2021/12/27 10:15:36;;;;;;;12.10;10.17;;;;;;;;;;5073481;28;20201;-78
2021/12/27 10:18:12;;;;;;;8.90;7.97;;;;;;;;;;5113659;28;20635;-78
2021/12/27 10:20:38;;;;;;;9.17;6.70;;;;;;;;;;5113857;28;20164;-78
2021/12/27 10:23:04;;;;;;;9.20;6.60;;;;;;;;;;5113836;28;20175;-78
2021/12/27 10:25:31;;;;;;;9.87;7.80;;;;;;;;;;5076643;28;20300;-78
2021/12/27 10:28:00;;;;;;;7.67;6.30;;;;;;;;;;5094569;28;20230;-78
2021/12/27 10:30:28;;;;;;;6.90;5.57;;;;;;;;;;5086225;28;20781;-78
2021/12/27 10:33:13;;;;;;;7.10;5.40;;;;;;;;;;5071690;28;20181;-78
2021/12/27 10:35:41;;;;;;;6.03;4.40;;;;;;;;;;5066014;28;20289;-79
2021/12/27 10:38:24;;;;;;;5.17;4.00;;;;;;;;;;5084239;28;20204;-79
2021/12/27 10:40:53;;;;;;;3.77;3.43;;;;;;;;;;5077322;28;20190;-78
2021/12/27 10:43:34;;;;;;;9.17;7.30;;;;;;;;;;5074740;28;20189;-78
2021/12/27 10:46:04;;;;;;;10.93;9.50;;;;;;;;;;5084505;28;20200;-78
2021/12/27 10:48:37;;;;;;;11.43;9.23;;;;;;;;;;5067806;28;20242;-77
2021/12/27 10:51:04;;;;;;;8.10;7.23;;;;;;;;;;5077584;28;20177;-79
2021/12/27 10:53:50;;;;;;;6.30;5.47;;;;;;;;;;5090121;28;20192;-78
2021/12/27 10:56:17;;;;;;;6.33;4.57;;;;;;;;;;5094779;28;20278;-79
2021/12/27 10:58:54;;;;;;;5.27;4.00;;;;;;;;;;5062300;28;20181;-80
2021/12/27 11:01:21;;;;;;;5.00;3.27;;;;;;;;;;5097165;28;20177;-78
2021/12/27 11:03:49;;;;;;;3.23;2.93;;;;;;;;;;5092015;28;20223;-79
2021/12/27 11:06:20;;;;;;;4.83;3.70;;;6.00;81.10;;;;;;5090558;28;20242;-79
2021/12/27 11:08:46;;;;;;;4.83;3.23;;;11.40;99.90;;;;;;5090506;28;20176;-79
2021/12/27 11:11:16;;;;;;;3.50;3.20;;;11.40;99.90;;;;;;5075407;28;20177;-79
2021/12/27 11:13:44;;;;;;;3.70;2.90;;;11.40;99.90;;;;;;5096353;28;20168;-79
2021/12/27 11:16:10;;;;;;;4.63;3.10;;;11.50;99.90;;;;;;5100222;28;20298;-80
2021/12/27 11:18:36;;;;;;;2.93;2.63;;;11.50;99.90;;;;;;5098129;28;20183;-79
2021/12/27 11:21:12;;;;;;;2.97;2.17;;;11.60;99.90;;;;;;5088422;28;20177;-80
2021/12/27 11:23:38;;;;;;;2.10;1.90;;;11.70;99.90;;;;;;5096898;28;20196;-77
2021/12/27 11:26:14;;;;;;;2.43;1.83;;;11.80;99.90;;;;;;5090458;28;20189;-77
2021/12/27 11:28:42;;;;;;;2.30;2.10;;;11.80;99.90;;;;;;5093207;28;20188;-77
2021/12/27 11:31:15;;;;;;;2.87;2.17;;;11.80;99.90;;;;;;5094890;28;20205;-81
2021/12/27 11:33:55;;;;;;;3.73;2.50;;;11.80;99.90;;;;;;5079316;28;20184;-81
2021/12/27 11:36:28;;;;;;;3.87;2.53;;;11.80;99.90;;;;;;5058405;28;20211;-81
2021/12/27 11:38:54;;;;;;;3.60;2.63;;;11.80;99.90;;;;;;5093939;28;20173;-81
2021/12/27 11:41:31;;;;;;;2.63;2.40;;;11.80;99.90;;;;;;5053576;28;20666;-81
2021/12/27 11:48:06;;;;;;;4.00;2.90;;;11.80;99.90;;;;;;5103609;28;20250;-85
2021/12/27 11:50:32;;;;;;;4.07;3.57;;;11.70;99.90;;;;;;5092080;28;20184;-79
2021/12/27 11:53:05;;;;;;;3.63;3.17;;;11.70;99.90;;;;;;5074116;28;20237;-79
2021/12/27 11:55:38;;;;;;;3.63;2.93;;;11.70;99.90;;;;;;5073181;28;20567;-79
2021/12/27 11:58:04;;;;;;;3.80;3.00;;;11.60;99.90;;;;;;5092107;28;20247;-80
2021/12/27 12:00:31;;;;;;;2.90;2.60;;;11.60;99.90;;;;;;5090162;28;20256;-79
2021/12/27 12:03:02;;;;;;;3.67;3.07;;;11.50;99.90;;;;;;5094126;28;20180;-80
2021/12/27 12:05:54;;;;;;;3.37;2.70;;;11.60;99.90;;;;;;5068499;28;20207;-80
2021/12/27 12:08:38;;;;;;;4.03;3.33;;;11.60;99.90;;;;;;5091365;28;20176;-79
2021/12/27 12:11:10;;;;;;;3.53;3.10;;;11.70;99.90;;;;;;5090765;28;20230;-80
2021/12/27 12:13:42;;;;;;;3.30;3.00;;;11.80;99.90;;;;;;5091842;28;20227;-79
2021/12/27 12:16:14;;;;;;;3.40;3.10;;;11.80;99.90;;;;;;5085497;28;20208;-79
2021/12/27 12:18:52;;;;;;;5.50;3.97;;;11.80;99.90;;;;;;5073846;28;20179;-79
2021/12/27 12:21:33;;;;;;;4.90;3.70;;;11.90;99.90;;;;;;5073343;28;20203;-80
2021/12/27 12:24:07;;;;;;;4.00;3.60;;;11.80;99.90;;;;;;5074353;28;20307;-80
2021/12/27 12:26:51;;;;;;;4.63;3.73;;;11.90;99.90;;;;;;5066308;28;20201;-79
2021/12/27 12:29:17;;;;;;;6.77;4.80;;;11.80;99.90;;;;;;5089205;28;20200;-78
2021/12/27 12:31:44;;;;;;;8.07;6.10;;;11.80;99.90;;;;;;5073737;28;20199;-76
2021/12/27 12:34:18;;;;;;;9.83;6.50;;;11.80;99.90;;;;;;5090744;28;20206;-76
2021/12/27 12:37:12;;;;;;;5.80;5.10;;;11.80;99.90;;;;;;5091845;28;20199;-77
2021/12/27 12:39:43;;;;;;;7.80;6.80;;;11.80;99.90;;;;;;5084366;28;20245;-77
2021/12/27 12:42:29;;;;;;;11.17;8.93;;;11.80;99.90;;;;;;5087768;28;20184;-77
2021/12/27 12:45:01;;;;;;;6.97;6.27;;;11.80;99.90;;;;;;5087069;28;20638;-78
2021/12/27 12:47:38;;;;;;;5.30;4.43;;;11.80;99.90;;;;;;5083572;28;20196;-78
2021/12/27 12:50:16;;;;;;;5.23;4.30;;;11.80;99.90;;;;;;5089229;28;20161;-78
2021/12/27 12:52:58;;;;;;;4.83;3.50;;;11.80;99.90;;;;;;5090610;28;20176;-77
2021/12/27 12:55:27;;;;;;;3.90;3.50;;;11.70;99.90;;;;;;5072617;28;20180;-77
2021/12/27 12:57:53;;;;;;;4.00;3.60;;;11.70;99.90;;;;;;5084237;28;20177;-77
2021/12/27 13:00:25;;;;;;;5.53;3.80;;;11.70;99.90;;;;;;5086239;28;20723;-77
2021/12/27 13:02:51;;;;;;;7.13;4.60;;;11.70;99.90;;;;;;5093807;28;20181;-77
2021/12/27 13:05:18;;;;;;;15.27;11.27;;;11.70;99.90;;;;;;5088443;28;20675;-77
2021/12/27 13:07:49;;;;;;;18.43;12.97;;;11.60;99.90;;;;;;5089089;28;20173;-77
2021/12/27 13:10:23;;;;;;;21.37;15.40;;;11.40;99.90;;;;;;5091335;28;20644;-77
2021/12/27 13:12:51;;;;;;;22.87;16.93;;;11.10;99.90;;;;;;5093316;28;20203;-77
2021/12/27 13:15:20;;;;;;;27.57;17.77;;;10.90;99.90;;;;;;5093705;28;20219;-77
2021/12/27 13:18:12;;;;;;;26.03;18.03;;;10.70;99.90;;;;;;5094144;28;20271;-77
2021/12/27 13:20:40;;;;;;;26.87;18.93;;;10.60;99.90;;;;;;5092725;28;20193;-77
2021/12/27 13:23:08;;;;;;;26.80;18.10;;;10.50;99.90;;;;;;5094451;28;20177;-77
2021/12/27 13:25:39;;;;;;;24.73;17.27;;;10.40;99.90;;;;;;5075786;28;20212;-77
2021/12/27 13:28:09;;;;;;;23.87;16.53;;;10.40;99.90;;;;;;5090315;28;20787;-77
2021/12/27 13:30:55;;;;;;;24.10;16.40;;;10.40;99.90;;;;;;5094555;28;20222;-79
2021/12/27 13:33:25;;;;;;;22.80;14.60;;;10.40;99.90;;;;;;5056042;28;20636;-78
2021/12/27 13:35:52;;;;;;;20.97;14.53;;;10.40;99.90;;;;;;5095728;28;20687;-80
2021/12/27 13:38:25;;;;;;;22.23;15.13;;;10.40;99.90;;;;;;5095611;28;20173;-79
2021/12/27 13:40:57;;;;;;;23.57;16.17;;;10.40;99.90;;;;;;5062029;28;20211;-76
2021/12/27 13:43:25;;;;;;;14.63;11.43;;;10.50;99.90;;;;;;5093857;28;20221;-76
2021/12/27 13:45:50;;;;;;;9.67;7.03;;;10.50;99.90;;;;;;5093304;28;20208;-77
2021/12/27 13:48:28;;;;;;;7.43;6.43;;;10.50;99.90;;;;;;5094829;28;20176;-76
2021/12/27 13:50:54;;;;;;;7.80;7.00;;;10.60;99.90;;;;;;5099402;28;20180;-76
2021/12/27 13:53:20;;;;;;;10.17;9.17;;;10.60;99.90;;;;;;5114581;28;20168;-75
2021/12/27 13:55:45;;;;;;;9.73;8.73;;;10.70;99.90;;;;;;5113936;28;20214;-76
2021/12/27 13:58:35;;;;;;;8.37;7.57;;;10.70;99.90;;;;;;5105127;28;20540;-78
2021/12/27 14:01:12;;;;;;;9.07;5.90;;;10.80;99.90;;;;;;5092740;28;20302;-77
2021/12/27 14:03:38;;;;;;;6.97;4.83;;;10.80;99.90;;;;;;5092342;28;20616;-77
2021/12/27 14:06:05;;;;;;;5.97;4.80;;;10.80;99.90;;;;;;5092389;28;20232;-77